Time;durP1;ratioP1;P1;durP2;ratioP2;P2;SDS_P1;SDS_P2;PMS_P1;PMS_P2;Temp;Humidity;BMP_temperature;BMP_pressure;BME280_temperature;BME280_humidity;BME280_pressure;Samples;Min_cycle;Max_cycle;Signal;HPM_P1;HPM_P2
2023/06/01 00:01:56;;;;;;;15.75;6.57;;;;;;;9.91;86.63;99043.00;5055693;28;20051;-44
2023/06/01 00:04:24;;;;;;;13.02;6.30;;;;;;;9.89;86.37;99044.84;5072916;28;20317;-44
2023/06/01 00:06:50;;;;;;;18.77;6.95;;;;;;;9.86;86.17;99042.38;5073072;28;20722;-46
2023/06/01 00:09:16;;;;;;;11.65;6.18;;;;;;;9.86;86.54;99039.75;5082598;28;20048;-45
2023/06/01 00:11:42;;;;;;;17.80;6.65;;;;;;;9.86;86.42;99042.38;5072219;28;20059;-43
2023/06/01 00:14:08;;;;;;;18.15;6.40;;;;;;;9.84;86.35;99039.00;5087291;28;20044;-47
2023/06/01 00:16:35;;;;;;;10.10;4.93;;;;;;;9.81;86.23;99039.97;5071775;28;20035;-42
2023/06/01 00:19:03;;;;;;;10.43;4.50;;;;;;;9.78;86.25;99033.16;5073378;28;20075;-44
2023/06/01 00:21:31;;;;;;;8.80;4.18;;;;;;;9.78;85.96;99042.69;5054877;28;20614;-43
2023/06/01 00:23:58;;;;;;;8.55;4.72;;;;;;;9.76;85.79;99042.75;5089773;28;20048;-43
2023/06/01 00:26:23;;;;;;;8.93;4.22;;;;;;;9.73;86.20;99042.03;5053824;28;20400;-44
2023/06/01 00:28:51;;;;;;;7.75;3.72;;;;;;;9.72;86.13;99024.78;5054406;28;20097;-44
2023/06/01 00:31:18;;;;;;;10.20;4.32;;;;;;;9.70;85.45;99037.81;5054038;28;20032;-44
2023/06/01 00:33:44;;;;;;;11.93;4.50;;;;;;;9.70;85.78;99031.75;5088522;28;20050;-44
2023/06/01 00:36:10;;;;;;;9.05;4.32;;;;;;;9.69;85.44;99038.72;5053063;28;20068;-45
2023/06/01 00:38:36;;;;;;;11.23;4.40;;;;;;;9.68;85.47;99036.19;5054427;28;20040;-45
2023/06/01 00:41:02;;;;;;;10.18;4.40;;;;;;;9.68;84.69;99041.38;5091053;28;20073;-45
2023/06/01 00:43:27;;;;;;;8.65;4.38;;;;;;;9.65;84.62;99033.72;5071278;28;20164;-44
2023/06/01 00:45:53;;;;;;;12.13;4.43;;;;;;;9.66;84.46;99035.41;5055081;28;20495;-44
2023/06/01 00:48:20;;;;;;;10.07;4.40;;;;;;;9.48;83.67;99003.25;5059223;28;20040;-43
2023/06/01 00:50:46;;;;;;;9.43;4.50;;;;;;;9.66;83.71;99038.00;5058280;28;20040;-42
2023/06/01 00:53:20;;;;;;;10.50;4.55;;;;;;;9.64;83.66;99034.59;5052219;28;20139;-43
2023/06/01 00:55:46;;;;;;;7.03;3.75;;;;;;;9.63;83.25;99038.94;5069146;28;20044;-43
2023/06/01 00:58:13;;;;;;;6.50;3.42;;;;;;;9.33;83.01;98996.09;5069436;28;20040;-42
2023/06/01 01:00:40;;;;;;;9.00;3.28;;;;;;;9.60;83.01;99033.06;5076966;28;20113;-44
2023/06/01 01:03:09;;;;;;;7.88;3.45;;;;;;;9.60;82.31;99031.31;5055286;28;20143;-43
2023/06/01 01:05:38;;;;;;;;;;;;;;;9.61;82.49;99033.00;5089857;28;20035;-43
2023/06/01 01:08:15;;;;;;;6.07;2.75;;;;;;;9.27;82.02;98975.59;5059074;28;20391;-42
2023/06/01 01:11:01;;;;;;;7.25;3.30;;;;;;;9.56;81.84;99023.72;5054764;28;20048;-44
2023/06/01 01:13:33;;;;;;;5.90;3.20;;;;;;;9.56;81.28;99027.16;5090226;28;20039;-44
2023/06/01 01:16:07;;;;;;;4.43;3.00;;;;;;;9.43;81.57;99000.00;5050888;28;20089;-43
2023/06/01 01:18:41;;;;;;;7.40;3.15;;;;;;;9.58;81.58;99030.50;5068072;28;20075;-43
2023/06/01 01:24:11;;;;;;;7.93;3.08;;;;;;;9.54;81.04;99025.50;5026010;28;20045;-44
2023/06/01 01:26:58;;;;;;;6.53;3.45;;;;;;;9.49;81.24;99017.91;5076692;28;20139;-43
2023/06/01 01:29:26;;;;;;;8.88;3.70;;;;;;;9.55;80.91;99024.63;5068970;28;20898;-46
2023/06/01 01:31:53;;;;;;;8.85;3.67;;;;;;;9.55;80.79;99020.28;5051340;28;20587;-45
2023/06/01 01:34:20;;;;;;;6.25;3.55;;;;;;;9.56;80.22;99024.56;5063509;28;20416;-45
2023/06/01 01:36:46;;;;;;;6.18;3.10;;;;;;;9.30;80.07;98972.88;5070934;28;20126;-43
2023/06/01 01:39:12;;;;;;;7.50;3.42;;;;;;;9.60;80.56;99015.72;5054922;28;20438;-42
2023/06/01 01:41:38;;;;;;;5.95;2.95;;;;;;;9.62;80.11;99015.69;5071052;28;20044;-43
2023/06/01 01:44:05;;;;;;;6.38;3.17;;;;;;;9.65;79.90;99012.94;5071241;28;20101;-44
2023/06/01 01:46:52;;;;;;;8.05;3.00;;;;;;;9.67;80.05;99011.16;5071220;28;20036;-42
2023/06/01 01:49:21;;;;;;;5.00;2.55;;;;;;;9.69;80.02;99009.31;5037434;28;20051;-42
2023/06/01 01:51:48;;;;;;;7.00;2.65;;;;;;;9.71;79.34;99017.88;5067672;28;20079;-43
2023/06/01 01:54:14;;;;;;;7.18;2.95;;;;;;;9.57;79.48;98989.06;5063957;28;20087;-43
2023/06/01 01:56:40;;;;;;;3.80;2.50;;;;;;;9.65;78.86;99003.41;5038134;28;20043;-45
2023/06/01 01:59:06;;;;;;;4.53;2.67;;;;;;;9.75;78.42;99016.84;5038242;28;20482;-47
2023/06/01 02:01:33;;;;;;;6.20;3.10;;;;;;;9.76;78.42;99019.38;5070185;28;20109;-43
2023/06/01 02:04:01;;;;;;;8.32;3.00;;;;;;;9.77;78.25;99015.88;5054343;28;20506;-45
2023/06/01 02:06:27;;;;;;;6.10;2.90;;;;;;;9.81;77.87;99010.56;5069670;28;20131;-43
2023/06/01 02:08:53;;;;;;;4.90;2.90;;;;;;;9.84;78.12;99026.84;5053966;28;20129;-47
2023/06/01 02:11:19;;;;;;;6.20;2.90;;;;;;;9.86;77.50;99012.06;5053975;28;20051;-50
2023/06/01 02:13:45;;;;;;;4.72;2.55;;;;;;;9.91;76.86;99014.44;5071187;28;20188;-43
2023/06/01 02:16:11;;;;;;;7.95;2.75;;;;;;;9.93;76.91;99015.25;5070558;28;20418;-44
2023/06/01 02:18:39;;;;;;;7.35;2.60;;;;;;;9.93;76.59;99015.25;5089327;28;20040;-43
2023/06/01 02:21:05;;;;;;;3.67;2.50;;;;;;;9.74;76.23;98974.47;5070194;28;20536;-42
2023/06/01 02:23:31;;;;;;;4.68;2.60;;;;;;;9.86;76.11;98998.22;5069222;28;20126;-42
2023/06/01 02:25:57;;;;;;;6.88;3.17;;;;;;;10.00;75.23;99012.31;5087221;28;20126;-42
2023/06/01 02:28:23;;;;;;;6.70;2.97;;;;;;;10.09;74.93;99027.53;5058637;28;20101;-44
2023/06/01 02:30:49;;;;;;;6.68;2.88;;;;;;;10.10;74.55;99017.97;5069048;28;20123;-44
2023/06/01 02:33:16;;;;;;;6.85;3.38;;;;;;;10.15;74.05;99026.41;5069278;28;20036;-44
2023/06/01 02:35:42;;;;;;;4.38;2.60;;;;;;;10.19;74.07;99026.25;5052869;28;20039;-43
2023/06/01 02:38:08;;;;;;;8.40;2.90;;;;;;;10.23;74.20;99026.09;5070322;28;20507;-44
2023/06/01 02:40:33;;;;;;;7.45;2.67;;;;;;;10.26;73.92;99033.78;5070572;28;20040;-43
2023/06/01 02:42:59;;;;;;;7.18;3.03;;;;;;;10.16;73.28;99008.19;5070768;28;20059;-45
2023/06/01 02:45:26;;;;;;;9.70;4.18;;;;;;;10.34;72.88;99031.66;5070018;28;20414;-43
2023/06/01 02:47:52;;;;;;;12.95;5.38;;;;;;;10.37;72.79;99034.97;5070537;28;20482;-43
2023/06/01 02:50:18;;;;;;;16.83;5.40;;;;;;;10.41;73.13;99036.56;5070425;28;20109;-43
2023/06/01 02:52:48;;;;;;;13.13;5.78;;;;;;;10.47;72.39;99033.66;5037483;28;20060;-43
2023/06/01 02:55:14;;;;;;;17.73;6.07;;;;;;;10.51;72.31;99032.63;5033914;28;20058;-44
2023/06/01 02:58:03;;;;;;;13.63;5.10;;;;;;;10.54;71.55;99027.28;5013034;28;20059;-44
2023/06/01 03:00:39;;;;;;;7.30;3.60;;;;;;;10.45;71.47;99006.91;5035281;28;20072;-44
2023/06/01 03:03:05;;;;;;;8.07;3.15;;;;;;;10.38;71.05;98983.84;5049217;28;20161;-45
2023/06/01 03:05:32;;;;;;;6.97;3.10;;;;;;;10.74;70.72;99031.56;5017148;28;20462;-44
2023/06/01 03:08:25;;;;;;;7.03;2.33;;;;;;;10.51;69.96;98995.41;5069742;28;20068;-45
2023/06/01 03:10:52;;;;;;;5.63;2.45;;;;;;;10.82;69.01;99045.09;5070201;28;20040;-45
2023/06/01 03:13:22;;;;;;;7.63;3.15;;;;;;;10.88;68.56;99037.00;5053066;28;20036;-42
2023/06/01 03:15:50;;;;;;;6.80;2.90;;;;;;;10.95;68.57;99045.34;5088578;28;20059;-45
2023/06/01 03:18:16;;;;;;;5.53;2.53;;;;;;;11.02;68.22;99041.56;5070392;28;20425;-45
2023/06/01 03:20:42;;;;;;;6.68;3.13;;;;;;;10.88;68.09;99013.59;5054003;28;20032;-43
2023/06/01 03:23:08;;;;;;;6.07;2.63;;;;;;;11.13;67.55;99041.91;5052404;28;20058;-46
2023/06/01 03:25:34;;;;;;;10.77;3.38;;;;;;;11.20;67.15;99038.09;5039600;28;20032;-46
2023/06/01 03:28:01;;;;;;;11.32;2.78;;;;;;;11.11;67.16;99009.91;5070391;28;20043;-44
2023/06/01 03:30:27;;;;;;;8.18;2.55;;;;;;;11.36;67.27;99038.22;5053500;28;20690;-46
2023/06/01 03:32:53;;;;;;;6.93;2.30;;;;;;;11.26;66.12;99021.34;5066747;28;20041;-46
2023/06/01 03:35:19;;;;;;;4.68;2.38;;;;;;;11.47;66.04;99039.38;5070023;28;20515;-47
2023/06/01 03:37:46;;;;;;;6.30;2.50;;;;;;;11.40;65.43;99018.94;5065488;28;20051;-45
2023/06/01 03:40:16;;;;;;;9.25;2.78;;;;;;;11.63;65.70;99049.91;5069996;28;20070;-48
2023/06/01 03:42:43;;;;;;;5.22;2.92;;;;;;;11.40;65.25;98991.16;5088029;28;20039;-46
2023/06/01 03:45:10;;;;;;;6.88;2.70;;;;;;;11.78;64.55;99040.50;5052153;28;20858;-45
2023/06/01 03:47:36;;;;;;;6.18;2.75;;;;;;;11.86;64.22;99039.25;5052430;28;20044;-48
2023/06/01 03:50:03;;;;;;;9.70;3.97;;;;;;;11.96;63.99;99041.38;5056325;28;20036;-45
2023/06/01 03:52:30;;;;;;;4.88;2.67;;;;;;;12.05;63.79;99038.28;5076400;28;20043;-44
2023/06/01 03:54:58;;;;;;;7.57;2.65;;;;;;;12.14;63.79;99037.84;5068826;28;20063;-48
2023/06/01 03:57:47;;;;;;;9.45;3.10;;;;;;;12.18;64.08;99021.97;5087119;28;20047;-44
2023/06/01 04:00:19;;;;;;;5.38;2.90;;;;;;;12.38;63.76;99027.91;5067704;28;20058;-46
2023/06/01 04:02:55;;;;;;;6.10;2.33;;;;;;;12.50;64.03;99028.13;5082879;28;20044;-44
2023/06/01 04:05:22;;;;;;;7.35;2.50;;;;;;;12.58;63.33;99019.88;5036434;28;20040;-44
2023/06/01 04:07:51;;;;;;;6.03;2.55;;;;;;;12.71;62.82;99027.00;5052643;28;20117;-44
2023/06/01 04:10:17;;;;;;;6.97;3.00;;;;;;;12.83;62.11;99017.66;5069009;28;20158;-44
2023/06/01 04:12:44;;;;;;;4.32;2.20;;;;;;;12.91;61.59;99028.53;5091495;28;20144;-46
2023/06/01 04:15:11;;;;;;;7.43;1.88;;;;;;;12.97;61.33;99022.13;5056829;28;20040;-43
2023/06/01 04:17:38;;;;;;;5.35;2.20;;;;;;;13.07;60.97;99023.31;5040251;28;20047;-47
2023/06/01 04:20:09;;;;;;;5.80;2.10;;;;;;;13.20;60.76;99018.28;5056641;28;20070;-45
2023/06/01 04:22:39;;;;;;;4.65;2.00;;;;;;;13.13;60.40;99004.75;5072879;28;20169;-46
2023/06/01 04:25:08;;;;;;;4.40;2.00;;;;;;;13.32;60.01;99028.03;5072804;28;20048;-46
2023/06/01 04:27:38;;;;;;;3.58;1.83;;;;;;;13.36;59.66;99021.72;5065421;28;20052;-47
2023/06/01 04:30:07;;;;;;;13.45;3.08;;;;;;;13.45;59.57;99031.66;5069448;28;20400;-43
2023/06/01 04:32:37;;;;;;;6.07;2.30;;;;;;;13.55;59.55;99028.41;5074810;28;20043;-47
2023/06/01 04:35:07;;;;;;;4.82;2.30;;;;;;;13.66;59.25;99026.97;5078385;28;20048;-47
2023/06/01 04:37:35;;;;;;;8.80;2.53;;;;;;;13.59;59.05;98995.16;5054611;28;20044;-43
2023/06/01 04:40:10;;;;;;;4.85;2.08;;;;;;;13.80;58.69;99019.19;5052129;28;20039;-43
2023/06/01 04:42:41;;;;;;;7.13;2.20;;;;;;;13.89;58.28;99016.88;5067663;28;20118;-43
2023/06/01 04:45:09;;;;;;;3.97;2.00;;;;;;;13.99;58.14;99019.78;5066915;28;20156;-45
2023/06/01 04:47:37;;;;;;;3.50;2.03;;;;;;;14.09;57.59;99022.69;5066003;28;20582;-47
2023/06/01 04:50:09;;;;;;;5.53;1.95;;;;;;;14.20;57.56;99020.28;5072617;28;20043;-43
2023/06/01 04:52:40;;;;;;;2.83;2.03;;;;;;;14.28;57.29;99023.31;5064811;28;20043;-44
2023/06/01 04:55:06;;;;;;;4.78;2.00;;;;;;;14.29;56.80;99025.81;5081190;28;20056;-48
2023/06/01 04:57:34;;;;;;;4.82;2.05;;;;;;;14.19;56.41;98993.31;5071466;28;20051;-45
2023/06/01 05:00:00;;;;;;;4.63;2.25;;;;;;;14.40;56.01;99012.97;5065942;28;20067;-44
2023/06/01 05:02:26;;;;;;;7.28;2.15;;;;;;;14.51;56.17;99016.69;5055513;28;20124;-47
2023/06/01 05:04:53;;;;;;;6.50;2.58;;;;;;;14.58;55.99;99007.56;5073994;28;20138;-49
2023/06/01 05:07:21;;;;;;;6.55;2.30;;;;;;;14.71;55.72;99016.31;5038068;28;20593;-42
2023/06/01 05:09:48;;;;;;;5.70;2.33;;;;;;;14.73;56.14;99007.44;5050943;28;20044;-44
2023/06/01 05:12:14;;;;;;;5.95;2.42;;;;;;;14.73;55.90;98993.50;5073816;28;20051;-40
2023/06/01 05:14:40;;;;;;;7.35;2.30;;;;;;;14.97;56.12;99009.47;5060704;28;20169;-46
2023/06/01 05:17:06;;;;;;;6.60;2.47;;;;;;;15.04;55.13;99010.75;5073656;28;20518;-40
2023/06/01 05:19:32;;;;;;;3.88;2.10;;;;;;;15.07;54.89;99016.63;5076606;28;20040;-47
2023/06/01 05:21:58;;;;;;;8.73;3.00;;;;;;;14.89;54.75;98972.47;5053684;28;20051;-45
2023/06/01 05:24:24;;;;;;;6.80;2.70;;;;;;;15.24;54.46;99011.16;5099268;28;20036;-44
2023/06/01 05:26:50;;;;;;;5.05;2.65;;;;;;;15.22;54.12;98986.03;5071776;28;20046;-45
2023/06/01 05:29:16;;;;;;;6.32;2.28;;;;;;;15.44;54.13;99007.25;5059239;28;20036;-47
2023/06/01 05:31:42;;;;;;;4.57;2.33;;;;;;;15.57;53.61;99007.34;5071589;28;20039;-46
2023/06/01 05:34:08;;;;;;;7.15;2.63;;;;;;;15.64;53.21;99003.38;5054597;28;20052;-45
2023/06/01 05:36:35;;;;;;;7.40;2.40;;;;;;;15.72;52.50;99001.09;5099398;28;20112;-44
2023/06/01 05:39:01;;;;;;;4.72;1.88;;;;;;;15.83;52.37;99000.38;5075029;28;20040;-45
2023/06/01 05:41:27;;;;;;;7.93;3.85;;;;;;;15.88;52.19;98982.56;5079180;28;20039;-48
2023/06/01 05:43:53;;;;;;;5.35;2.17;;;;;;;16.11;51.62;99008.09;5082979;28;20529;-46
2023/06/01 05:46:20;;;;;;;4.57;2.42;;;;;;;16.18;51.68;99004.09;5069863;28;20075;-44
2023/06/01 05:48:46;;;;;;;7.32;2.60;;;;;;;16.34;51.58;99007.34;5057719;28;20427;-46
2023/06/01 05:51:13;;;;;;;5.25;2.13;;;;;;;16.41;51.11;99000.75;5064663;28;20040;-46
2023/06/01 05:53:41;;;;;;;10.15;2.80;;;;;;;16.64;51.14;99009.69;5053669;28;20056;-46
2023/06/01 05:56:07;;;;;;;9.63;2.95;;;;;;;16.72;50.41;98998.63;5057922;28;20043;-43
2023/06/01 05:58:33;;;;;;;5.60;2.30;;;;;;;16.84;50.63;99000.41;5081014;28;20079;-43
2023/06/01 06:00:59;;;;;;;6.20;2.47;;;;;;;17.09;50.51;99000.31;5078309;28;20575;-43
2023/06/01 06:03:25;;;;;;;6.20;2.17;;;;;;;17.33;50.36;99003.78;5083083;28;20062;-49
2023/06/01 06:05:50;;;;;;;6.75;2.60;;;;;;;17.28;50.13;98990.16;5071199;28;20050;-49
2023/06/01 06:08:17;;;;;;;7.07;2.30;;;;;;;17.35;49.36;98986.13;5069633;28;20409;-45
2023/06/01 06:10:43;;;;;;;4.60;2.53;;;;;;;17.48;49.32;98999.19;5065494;28;20046;-45
2023/06/01 06:13:09;;;;;;;8.68;3.00;;;;;;;17.63;49.40;98992.88;5065423;28;20075;-46
2023/06/01 06:15:36;;;;;;;6.82;2.63;;;;;;;17.82;49.07;98996.75;5069221;28;20101;-44
2023/06/01 06:18:02;;;;;;;11.88;3.08;;;;;;;18.07;48.64;99004.47;5081778;28;20044;-46
2023/06/01 06:20:28;;;;;;;4.50;2.85;;;;;;;18.21;47.54;98999.81;5080231;28;20458;-45
2023/06/01 06:22:54;;;;;;;5.22;3.00;;;;;;;18.17;46.68;99008.91;5088513;28;20040;-44
2023/06/01 06:25:20;;;;;;;7.22;3.08;;;;;;;18.27;46.87;98995.03;5045543;28;20040;-44
2023/06/01 06:27:47;;;;;;;8.20;3.47;;;;;;;18.47;46.96;98991.75;5052323;28;20036;-45
2023/06/01 06:30:13;;;;;;;10.27;3.13;;;;;;;18.66;46.11;98992.00;5084189;28;20040;-46
2023/06/01 06:32:39;;;;;;;5.30;2.30;;;;;;;18.72;44.80;98980.16;5067563;28;20055;-45
2023/06/01 06:35:05;;;;;;;6.05;2.20;;;;;;;18.96;43.75;98991.38;5084894;28;20044;-44
2023/06/01 06:37:32;;;;;;;7.15;2.10;;;;;;;19.28;43.31;98986.97;5077882;28;20048;-44
2023/06/01 06:39:58;;;;;;;8.07;2.10;;;;;;;19.68;42.25;98966.13;5078330;28;20047;-44
2023/06/01 06:42:24;;;;;;;4.15;2.20;;;;;;;20.56;41.48;98987.66;5068040;28;20040;-46
2023/06/01 06:44:50;;;;;;;3.95;1.98;;;;;;;21.22;40.68;98982.75;5063019;28;20475;-43
2023/06/01 06:47:19;;;;;;;5.20;2.20;;;;;;;21.59;39.28;98990.84;5077583;28;20101;-45
2023/06/01 06:49:46;;;;;;;6.30;1.83;;;;;;;21.97;38.51;98987.38;5074735;28;20051;-45
2023/06/01 06:52:11;;;;;;;3.55;2.00;;;;;;;22.69;37.50;98973.50;5085834;28;20077;-45
2023/06/01 06:54:40;;;;;;;4.78;2.00;;;;;;;23.29;36.74;98981.84;5068027;28;20147;-45
2023/06/01 06:57:06;;;;;;;;;;;;;;;23.54;36.06;98967.88;5063913;28;20094;-47
2023/06/01 06:59:33;;;;;;;8.68;2.20;;;;;;;24.21;34.94;98977.03;5064564;28;19923;-45
2023/06/01 07:01:58;;;;;;;6.22;2.00;;;;;;;24.08;34.56;98969.44;5083630;28;20051;-43
2023/06/01 07:04:24;;;;;;;5.90;2.10;;;;;;;24.71;33.95;98974.47;5064058;28;20046;-47
2023/06/01 07:06:51;;;;;;;3.05;1.92;;;;;;;24.82;32.92;98961.75;5067552;28;20044;-50
2023/06/01 07:09:17;;;;;;;8.98;2.25;;;;;;;24.83;33.00;98962.56;5048374;28;20036;-47
2023/06/01 07:11:44;;;;;;;5.50;2.40;;;;;;;25.65;32.21;98952.00;5085101;28;20046;-44
2023/06/01 07:14:11;;;;;;;8.57;2.08;;;;;;;26.64;31.00;98950.88;5068043;28;20044;-46
2023/06/01 07:16:37;;;;;;;6.35;2.30;;;;;;;27.30;30.29;98950.38;5085158;28;20595;-47
2023/06/01 07:19:03;;;;;;;7.65;2.55;;;;;;;27.32;28.99;98949.19;5078872;28;20042;-48
2023/06/01 07:21:29;;;;;;;5.70;2.22;;;;;;;27.13;28.98;98940.81;5083698;28;20158;-44
2023/06/01 07:23:55;;;;;;;7.53;2.15;;;;;;;27.40;29.10;98941.13;5090522;28;20041;-45
2023/06/01 07:26:25;;;;;;;6.25;2.10;;;;;;;27.80;28.54;98945.34;5055132;28;20047;-43
2023/06/01 07:28:53;;;;;;;3.42;2.03;;;;;;;27.91;27.99;98913.84;5087051;28;20375;-48
2023/06/01 07:31:20;;;;;;;4.72;1.90;;;;;;;28.13;27.81;98943.22;5083107;28;20047;-42
2023/06/01 07:33:46;;;;;;;5.30;1.83;;;;;;;28.31;27.45;98929.53;5065497;28;20048;-43
2023/06/01 07:36:12;;;;;;;17.15;2.45;;;;;;;28.79;26.94;98924.59;5074750;28;20047;-44
2023/06/01 07:38:37;;;;;;;3.58;1.65;;;;;;;28.47;26.33;98940.00;5067522;28;20165;-46
2023/06/01 07:41:03;;;;;;;4.95;1.98;;;;;;;27.64;26.45;98926.78;5062896;28;20063;-45
2023/06/01 07:43:30;;;;;;;3.97;1.70;;;;;;;27.79;26.47;98938.31;5064596;28;20612;-44
2023/06/01 07:45:57;;;;;;;2.92;1.60;;;;;;;27.83;26.30;98912.09;5080780;28;20063;-46
2023/06/01 07:48:23;;;;;;;4.28;1.70;;;;;;;28.37;26.14;98928.75;5083513;28;20055;-43
2023/06/01 07:50:50;;;;;;;5.97;1.83;;;;;;;28.27;26.04;98917.50;5084300;28;20100;-45
2023/06/01 07:53:17;;;;;;;5.17;1.70;;;;;;;28.03;26.43;98926.59;5071836;28;20541;-43
2023/06/01 07:55:43;;;;;;;5.55;1.90;;;;;;;28.55;25.93;98936.41;5072484;28;20286;-47
2023/06/01 07:58:09;;;;;;;3.80;1.95;;;;;;;28.53;25.63;98915.19;5082773;28;20044;-49
2023/06/01 08:00:35;;;;;;;5.22;1.70;;;;;;;28.36;25.07;98907.56;5086370;28;20130;-44
2023/06/01 08:03:05;;;;;;;3.50;1.48;;;;;;;28.55;25.09;98926.56;5053763;28;20504;-46
2023/06/01 08:05:34;;;;;;;4.50;1.70;;;;;;;27.89;25.70;98937.28;5050399;28;20047;-45
2023/06/01 08:08:00;;;;;;;3.28;1.45;;;;;;;26.90;26.79;98927.44;5055418;28;20562;-47
2023/06/01 08:10:26;;;;;;;3.60;1.90;;;;;;;26.86;26.25;98918.91;5022873;28;20047;-47
2023/06/01 08:12:55;;;;;;;3.13;1.60;;;;;;;27.26;26.19;98909.88;5071629;28;20047;-47
2023/06/01 08:15:28;;;;;;;2.47;1.67;;;;;;;27.04;26.73;98907.19;5036061;28;20127;-47
2023/06/01 08:17:54;;;;;;;3.63;1.80;;;;;;;27.05;26.85;98919.50;5059322;28;20044;-44
2023/06/01 08:20:22;;;;;;;9.20;1.90;;;;;;;27.01;26.85;98894.19;5055332;28;20036;-45
2023/06/01 08:22:49;;;;;;;4.35;2.08;;;;;;;26.91;27.42;98915.75;5045978;28;20043;-46
2023/06/01 08:25:15;;;;;;;4.63;1.92;;;;;;;27.56;26.74;98910.84;5061313;28;20048;-50
2023/06/01 08:27:43;;;;;;;6.47;1.70;;;;;;;28.54;25.60;98906.16;5056127;28;20043;-46
2023/06/01 08:30:09;;;;;;;6.15;1.90;;;;;;;28.84;25.16;98908.84;5057559;28;20724;-44
2023/06/01 08:32:35;;;;;;;8.32;1.85;;;;;;;29.40;24.78;98901.84;5066777;28;20055;-47
2023/06/01 08:35:01;;;;;;;3.78;1.50;;;;;;;28.87;24.85;98895.06;5079570;28;20070;-48
2023/06/01 08:37:27;;;;;;;2.70;1.80;;;;;;;28.58;25.39;98903.94;5051628;28;20067;-47
2023/06/01 08:39:53;;;;;;;3.33;1.50;;;;;;;29.05;24.93;98887.44;5078496;28;20063;-50
2023/06/01 08:42:33;;;;;;;4.28;2.08;;;;;;;30.28;24.15;98898.63;5034858;28;20076;-48
2023/06/01 08:44:59;;;;;;;5.80;2.35;;;;;;;30.59;24.11;98906.25;5077145;28;20118;-48
2023/06/01 08:47:26;;;;;;;2.50;1.60;;;;;;;30.86;23.28;98899.94;5046017;28;20051;-47
2023/06/01 08:49:53;;;;;;;4.50;1.75;;;;;;;30.22;23.71;98889.50;5070393;28;20079;-46
2023/06/01 08:52:20;;;;;;;5.65;1.90;;;;;;;30.02;24.04;98895.78;5041822;28;20048;-46
2023/06/01 08:54:46;;;;;;;2.90;1.52;;;;;;;29.65;24.09;98897.75;5070912;28;20060;-48
2023/06/01 08:57:13;;;;;;;2.20;1.50;;;;;;;29.57;24.20;98884.50;5079450;28;20384;-45
2023/06/01 08:59:39;;;;;;;5.05;2.00;;;;;;;30.36;23.59;98874.31;5064692;28;20719;-46
2023/06/01 09:02:06;;;;;;;5.88;2.00;;;;;;;30.16;23.54;98876.06;5081539;28;20154;-44
2023/06/01 09:04:35;;;;;;;2.38;1.40;;;;;;;31.21;22.53;98876.50;5052310;28;20097;-44
2023/06/01 09:07:02;;;;;;;3.22;1.83;;;;;;;31.00;22.86;98890.06;5071901;28;20047;-45
2023/06/01 09:09:28;;;;;;;4.15;1.85;;;;;;;30.55;23.47;98880.84;5052811;28;20592;-47
2023/06/01 09:12:23;;;;;;;5.50;2.28;;;;;;;30.86;23.04;98877.66;5081857;28;20071;-45
2023/06/01 09:14:50;;;;;;;4.10;2.05;;;;;;;30.38;22.95;98896.41;5068674;28;20044;-46
2023/06/01 09:17:23;;;;;;;4.85;1.75;;;;;;;29.47;23.59;98875.94;5047904;28;20043;-45
2023/06/01 09:19:57;;;;;;;4.38;1.80;;;;;;;30.22;22.83;98886.00;5081115;28;20040;-47
2023/06/01 09:22:24;;;;;;;3.88;1.50;;;;;;;29.60;23.87;98885.94;5081286;28;20064;-46
2023/06/01 09:24:57;;;;;;;4.93;1.90;;;;;;;29.57;24.32;98875.63;5080313;28;20063;-45
2023/06/01 09:27:23;;;;;;;4.07;1.98;;;;;;;30.12;22.67;98848.00;5078836;28;20040;-45
2023/06/01 09:29:54;;;;;;;2.65;1.40;;;;;;;30.65;22.23;98862.50;5067548;28;20044;-46
2023/06/01 09:32:21;;;;;;;3.58;1.88;;;;;;;31.77;21.66;98868.91;5064935;28;20090;-47
2023/06/01 09:34:47;;;;;;;3.92;2.17;;;;;;;31.10;22.11;98864.50;5066033;28;20040;-47
2023/06/01 09:37:14;;;;;;;3.40;2.17;;;;;;;31.26;22.21;98836.44;5084290;28;20085;-44
2023/06/01 09:39:39;;;;;;;6.50;2.13;;;;;;;32.22;21.15;98844.88;5068399;28;20046;-45
2023/06/01 09:42:06;;;;;;;2.88;1.67;;;;;;;32.86;20.90;98870.94;5079032;28;20036;-46
2023/06/01 09:44:37;;;;;;;4.95;2.00;;;;;;;32.79;20.46;98865.56;5069241;28;20580;-46
2023/06/01 09:47:05;;;;;;;5.40;1.90;;;;;;;33.61;19.90;98868.13;5083770;28;20036;-47
2023/06/01 09:49:32;;;;;;;;;;;;;;;33.82;19.27;98872.34;5048053;28;20044;-50
2023/06/01 09:52:04;;;;;;;3.92;1.50;;;;;;;33.05;18.75;98868.13;5063397;28;19955;-45
2023/06/01 09:54:31;;;;;;;6.03;1.88;;;;;;;32.84;19.27;98865.75;5064662;28;20139;-45
2023/06/01 09:56:58;;;;;;;3.30;1.60;;;;;;;33.75;18.87;98873.47;5068534;28;20483;-44
2023/06/01 09:59:25;;;;;;;4.80;1.90;;;;;;;33.86;18.61;98868.19;5078581;28;20127;-45
2023/06/01 10:01:55;;;;;;;3.55;1.98;;;;;;;33.36;18.17;98888.03;5067062;28;20043;-44
2023/06/01 10:04:26;;;;;;;6.25;1.80;;;;;;;31.90;19.02;98871.59;5048158;28;20052;-45
2023/06/01 10:06:54;;;;;;;3.88;1.70;;;;;;;31.75;19.34;98865.63;5062357;28;20070;-43
2023/06/01 10:09:22;;;;;;;2.80;1.58;;;;;;;31.42;19.50;98862.91;5048053;28;20508;-45
2023/06/01 10:11:52;;;;;;;11.17;2.23;;;;;;;31.81;19.59;98858.59;5078056;28;20036;-44
2023/06/01 10:14:20;;;;;;;6.50;1.58;;;;;;;32.20;19.45;98860.38;5079273;28;20043;-44
2023/06/01 10:16:49;;;;;;;2.90;1.63;;;;;;;32.70;19.30;98850.72;5080518;28;20035;-45
2023/06/01 10:19:14;;;;;;;4.13;1.63;;;;;;;31.98;19.74;98846.34;5082420;28;20059;-44
2023/06/01 10:21:44;;;;;;;7.03;2.20;;;;;;;32.83;19.48;98861.41;5074014;28;20113;-47
2023/06/01 10:24:10;;;;;;;2.58;2.13;;;;;;;32.63;19.42;98857.94;5082961;28;20071;-50
2023/06/01 10:26:57;;;;;;;3.60;1.40;;;;;;;32.75;18.97;98856.28;5087209;28;20048;-45
2023/06/01 10:29:24;;;;;;;2.38;1.63;;;;;;;31.77;20.28;98858.16;5060277;28;20038;-44
2023/06/01 10:31:51;;;;;;;5.60;1.70;;;;;;;32.45;19.90;98861.34;5069488;28;20047;-49
2023/06/01 10:34:40;;;;;;;6.70;1.60;;;;;;;31.68;19.76;98843.28;5090704;28;20036;-44
2023/06/01 10:37:16;;;;;;;2.45;1.30;;;;;;;31.98;20.05;98839.09;5077537;28;20047;-49
2023/06/01 10:39:42;;;;;;;1.95;1.60;;;;;;;31.98;19.99;98842.84;5079434;28;20127;-44
2023/06/01 10:42:14;;;;;;;3.30;1.80;;;;;;;31.75;20.11;98849.50;5049887;28;20522;-46
2023/06/01 10:44:40;;;;;;;4.50;2.03;;;;;;;31.66;19.88;98856.13;5066839;28;20043;-44
2023/06/01 10:47:19;;;;;;;1.88;1.45;;;;;;;31.78;20.16;98842.84;5082863;28;20516;-38
2023/06/01 10:49:51;;;;;;;6.03;1.58;;;;;;;31.76;20.05;98848.47;5061838;28;20040;-44
2023/06/01 10:52:29;;;;;;;3.85;1.50;;;;;;;32.28;19.77;98850.25;5082996;28;20043;-44
2023/06/01 10:55:15;;;;;;;5.13;1.92;;;;;;;32.99;19.29;98839.34;5080271;28;20589;-42
2023/06/01 10:57:45;;;;;;;4.97;1.88;;;;;;;33.61;19.12;98851.97;5077593;28;20048;-44
2023/06/01 11:00:27;;;;;;;3.50;1.58;;;;;;;33.76;18.48;98842.75;5079912;28;20134;-48
2023/06/01 11:03:01;;;;;;;3.78;1.70;;;;;;;34.32;18.17;98837.19;5081613;28;20047;-47
2023/06/01 11:05:58;;;;;;;3.58;1.88;;;;;;;33.39;18.98;98849.91;5080486;28;20040;-48
2023/06/01 11:08:27;;;;;;;9.55;2.15;;;;;;;32.07;20.12;98837.03;5064398;28;20085;-50
2023/06/01 11:10:52;;;;;;;6.05;1.92;;;;;;;33.13;19.28;98848.19;5081811;28;20039;-44
2023/06/01 11:13:21;;;;;;;5.53;1.77;;;;;;;32.56;19.25;98832.91;5042004;28;20427;-50
2023/06/01 11:16:22;;;;;;;3.10;1.60;;;;;;;32.67;19.41;98838.50;5066256;28;20119;-45
2023/06/01 11:19:00;;;;;;;2.20;1.60;;;;;;;32.75;19.48;98826.66;5063808;28;20040;-47
2023/06/01 11:21:30;;;;;;;;;;;;;;;32.67;19.55;98821.50;5068212;28;20057;-46
2023/06/01 11:24:00;;;;;;;2.55;1.70;;;;;;;33.41;18.70;98815.44;5085376;28;19951;-51
2023/06/01 11:26:32;;;;;;;4.03;1.90;;;;;;;33.88;18.73;98831.00;5085714;28;20174;-46
2023/06/01 11:29:06;;;;;;;2.92;1.23;;;;;;;33.06;18.83;98836.63;5083160;28;20086;-50
2023/06/01 11:31:38;;;;;;;10.27;2.33;;;;;;;31.16;20.86;98819.91;5068214;28;20035;-50
2023/06/01 11:34:04;;;;;;;4.53;1.80;;;;;;;31.47;20.79;98828.19;5083808;28;20137;-46
2023/06/01 11:36:36;;;;;;;4.72;1.80;;;;;;;31.70;20.19;98819.72;5082952;28;20582;-46
2023/06/01 11:39:02;;;;;;;5.93;1.63;;;;;;;32.35;19.89;98829.50;5071483;28;20036;-46
2023/06/01 11:41:28;;;;;;;9.80;2.80;;;;;;;33.05;19.70;98835.78;5063055;28;20086;-44
2023/06/01 11:43:55;;;;;;;3.42;1.70;;;;;;;33.35;18.56;98822.53;5089447;28;20624;-47